Time;durP1;ratioP1;P1;durP2;ratioP2;P2;SDS_P1;SDS_P2;PMS_P1;PMS_P2;Temp;Humidity;BMP_temperature;BMP_pressure;BME280_temperature;BME280_humidity;BME280_pressure;Samples;Min_cycle;Max_cycle;Signal;HPM_P1;HPM_P2
2022/07/01 00:00:47;;;;;;;12.25;4.75;;;;;;;21.38;100.00;157892.50;4990650;28;20121;-77
2022/07/01 00:03:13;;;;;;;12.30;4.45;;;;;;;21.33;100.00;157879.56;5005978;28;20562;-77
2022/07/01 00:05:39;;;;;;;8.05;2.78;;;;;;;21.28;99.68;157867.94;5006354;28;20480;-79
2022/07/01 00:08:05;;;;;;;4.68;2.20;;;;;;;21.35;96.65;157886.00;4986917;28;20038;-76
2022/07/01 00:10:31;;;;;;;3.08;1.98;;;;;;;21.35;94.38;157884.72;5008051;28;20030;-77
2022/07/01 00:12:56;;;;;;;2.03;1.83;;;;;;;;;;5005529;28;20488;-75
2022/07/01 00:15:22;;;;;;;3.58;1.60;;;;;;;21.02;96.13;157800.81;4988421;28;20034;-76
2022/07/01 00:17:48;;;;;;;5.07;1.67;;;;;;;20.88;98.29;157765.97;4965300;28;20077;-77
2022/07/01 00:20:14;;;;;;;2.67;2.20;;;;;;;20.65;100.00;157707.91;4985922;28;20041;-76
2022/07/01 00:22:41;;;;;;;7.35;2.30;;;;;;;20.46;100.00;157660.13;4998140;28;20052;-77
2022/07/01 00:25:07;;;;;;;10.98;3.47;;;;;;;20.33;100.00;157629.13;5008443;28;20116;-78
2022/07/01 00:27:36;;;;;;;9.40;3.20;;;;;;;20.03;100.00;157553.00;4972736;28;20037;-76
2022/07/01 00:30:02;;;;;;;11.35;3.40;;;;;;;19.75;100.00;157483.34;5007430;28;20080;-78
2022/07/01 00:32:28;;;;;;;11.00;3.42;;;;;;;19.50;100.00;157420.09;4983836;28;20037;-74
2022/07/01 00:34:53;;;;;;;7.25;3.10;;;;;;;19.34;100.00;157380.09;4991688;28;20053;-76
2022/07/01 00:37:19;;;;;;;9.82;3.65;;;;;;;19.18;100.00;157340.16;4993444;28;20041;-77
2022/07/01 00:39:44;;;;;;;7.55;3.55;;;;;;;19.00;100.00;157293.72;4977063;28;20035;-76
2022/07/01 00:42:10;;;;;;;15.18;4.60;;;;;;;18.76;100.00;157234.38;5005933;28;20483;-78
2022/07/01 00:44:36;;;;;;;11.27;5.03;;;;;;;18.69;100.00;157216.31;5001608;28;20076;-78
2022/07/01 00:47:03;;;;;;;14.48;4.32;;;;;;;18.58;100.00;157189.25;4968961;28;20122;-76
2022/07/01 00:49:29;;;;;;;12.15;4.65;;;;;;;18.54;100.00;157177.66;4968252;28;20042;-74
2022/07/01 00:51:55;;;;;;;8.57;3.95;;;;;;;18.65;100.00;157206.03;4989172;28;20793;-79
2022/07/01 00:54:21;;;;;;;8.05;4.05;;;;;;;18.61;100.00;157197.00;5002103;28;20033;-76
2022/07/01 00:56:48;;;;;;;11.05;4.68;;;;;;;18.51;100.00;157169.91;4997074;28;20152;-76
2022/07/01 00:59:14;;;;;;;19.25;5.22;;;;;;;18.16;100.00;157082.25;4990342;28;20034;-78
2022/07/01 01:01:40;;;;;;;15.63;5.75;;;;;;;17.97;100.00;157034.56;4973595;28;20069;-75
2022/07/01 01:04:06;;;;;;;16.45;6.18;;;;;;;17.83;100.00;156999.75;4981999;28;20508;-79
2022/07/01 01:06:33;;;;;;;11.65;6.03;;;;;;;17.80;100.00;156993.31;4986738;28;20043;-79
2022/07/01 01:08:59;;;;;;;10.18;5.97;;;;;;;17.76;100.00;156981.69;4985688;28;20120;-77
2022/07/01 01:11:26;;;;;;;9.73;5.03;;;;;;;17.84;100.00;157002.34;4982274;28;20177;-78
2022/07/01 01:13:51;;;;;;;8.50;5.10;;;;;;;17.69;100.00;156964.97;5004756;28;20519;-77
2022/07/01 01:16:22;;;;;;;13.27;5.50;;;;;;;17.68;100.00;156963.63;4974399;28;20039;-78
2022/07/01 01:18:48;;;;;;;7.80;5.10;;;;;;;17.66;100.00;156958.50;4998976;28;20034;-75
2022/07/01 01:21:15;;;;;;;11.60;4.90;;;;;;;17.63;100.00;156949.47;4990510;28;20048;-76
2022/07/01 01:23:41;;;;;;;18.88;5.82;;;;;;;17.60;100.00;156941.78;4973836;28;20033;-77
2022/07/01 01:26:21;;;;;;;14.73;5.93;;;;;;;17.46;100.00;156906.97;5024846;28;20033;-75
2022/07/01 01:28:48;;;;;;;12.02;5.82;;;;;;;17.29;100.00;156865.75;4978398;28;20061;-76
2022/07/01 01:31:14;;;;;;;11.60;5.82;;;;;;;17.32;100.00;156872.19;4969641;28;20133;-76
2022/07/01 01:33:40;;;;;;;10.40;5.78;;;;;;;17.27;100.00;156860.63;5008125;28;20524;-77
2022/07/01 01:36:09;;;;;;;12.30;5.55;;;;;;;17.38;100.00;156887.63;4991318;28;20022;-77
2022/07/01 01:38:36;;;;;;;11.93;5.70;;;;;;;17.25;100.00;156855.47;4990241;28;20049;-75
2022/07/01 01:41:04;;;;;;;14.07;6.40;;;;;;;17.26;100.00;156856.75;5029780;28;20094;-76
2022/07/01 01:43:30;;;;;;;11.85;6.13;;;;;;;17.15;100.00;156828.41;5015692;28;20033;-75
2022/07/01 01:45:55;;;;;;;11.93;5.93;;;;;;;17.10;100.00;156818.13;4994188;28;20035;-75
2022/07/01 01:48:21;;;;;;;13.57;6.22;;;;;;;17.07;100.00;156809.09;5028821;28;20634;-73
2022/07/01 01:50:47;;;;;;;17.50;6.68;;;;;;;17.08;100.00;156812.97;5005418;28;20097;-75
2022/07/01 01:53:12;;;;;;;14.35;6.57;;;;;;;17.15;100.00;156829.69;5025543;28;20026;-75
2022/07/01 01:55:38;;;;;;;11.70;7.10;;;;;;;17.18;100.00;156837.44;5015838;28;20032;-72
2022/07/01 01:58:03;;;;;;;13.05;7.13;;;;;;;17.34;100.00;156877.34;5004572;28;20038;-76
2022/07/01 02:00:29;;;;;;;11.95;7.32;;;;;;;17.42;100.00;156897.97;5013787;28;20041;-78
2022/07/01 02:02:55;;;;;;;17.65;8.38;;;;;;;17.53;100.00;156925.00;5034501;28;20021;-73
2022/07/01 02:05:20;;;;;;;12.27;7.68;;;;;;;17.59;100.00;156939.16;5011783;28;20046;-77
2022/07/01 02:07:46;;;;;;;11.85;8.35;;;;;;;17.68;100.00;156962.38;5010370;28;20057;-76
2022/07/01 02:10:11;;;;;;;11.15;7.30;;;;;;;17.72;100.00;156972.66;5010322;28;20042;-73
2022/07/01 02:12:37;;;;;;;16.33;7.05;;;;;;;17.65;100.00;156955.94;5016657;28;20045;-76
2022/07/01 02:15:03;;;;;;;9.48;6.90;;;;;;;17.65;100.00;156955.94;4982991;28;20045;-78
2022/07/01 02:17:28;;;;;;;9.27;6.20;;;;;;;17.67;100.00;156961.09;5004068;28;20041;-77
2022/07/01 02:19:54;;;;;;;10.25;6.75;;;;;;;17.66;100.00;156957.22;4993799;28;20052;-77
2022/07/01 02:22:20;;;;;;;13.20;6.90;;;;;;;17.63;100.00;156950.78;4982890;28;20041;-78
2022/07/01 02:24:46;;;;;;;11.65;7.45;;;;;;;17.67;100.00;156961.09;4995173;28;20045;-78
2022/07/01 02:27:12;;;;;;;11.80;7.70;;;;;;;17.74;100.00;156976.53;5007638;28;20036;-79
2022/07/01 02:29:38;;;;;;;11.63;8.10;;;;;;;17.74;100.00;156976.53;4985678;28;20042;-78
2022/07/01 02:32:04;;;;;;;11.57;7.60;;;;;;;17.70;100.00;156968.78;5003518;28;20026;-77
2022/07/01 02:34:29;;;;;;;14.20;8.50;;;;;;;17.79;100.00;156990.72;5006223;28;20435;-77
2022/07/01 02:36:55;;;;;;;14.00;9.55;;;;;;;17.87;100.00;157010.09;4979507;28;20033;-78
2022/07/01 02:39:22;;;;;;;14.77;9.23;;;;;;;17.81;100.00;156994.59;4997556;28;20558;-78
2022/07/01 02:44:34;;;;;;;16.77;9.93;;;;;;;17.87;100.00;157011.38;4987215;28;20332;-76
2022/07/01 02:47:00;;;;;;;16.17;11.20;;;;;;;17.94;100.00;157028.13;5005112;28;20034;-78
2022/07/01 02:49:26;;;;;;;18.08;10.57;;;;;;;17.96;100.00;157032.00;4989983;28;20037;-75
2022/07/01 02:51:51;;;;;;;15.07;10.10;;;;;;;17.89;100.00;157015.25;5012941;28;20081;-79
2022/07/01 02:54:17;;;;;;;17.63;10.00;;;;;;;17.82;100.00;156998.47;5009165;28;20025;-77
2022/07/01 02:56:42;;;;;;;22.77;10.95;;;;;;;17.79;100.00;156990.72;4981958;28;20042;-77
2022/07/01 02:59:08;;;;;;;15.23;10.55;;;;;;;17.79;100.00;156989.44;4989595;28;20486;-78
2022/07/01 03:01:33;;;;;;;16.00;10.02;;;;;;;17.80;100.00;156992.00;5006249;28;20038;-78
2022/07/01 03:03:59;;;;;;;15.50;9.27;;;;;;;17.86;100.00;157008.81;4991076;28;20506;-77
2022/07/01 03:06:25;;;;;;;13.40;9.43;;;;;;;17.85;100.00;157006.22;4992854;28;20033;-76
2022/07/01 03:08:51;;;;;;;15.48;9.70;;;;;;;17.86;100.00;157007.53;5002157;28;20044;-77
2022/07/01 03:11:16;;;;;;;16.13;9.07;;;;;;;17.86;100.00;157007.53;4995539;28;20026;-78
2022/07/01 03:13:42;;;;;;;15.13;9.50;;;;;;;17.88;100.00;157013.97;5015532;28;20041;-74
2022/07/01 03:16:07;;;;;;;13.05;9.52;;;;;;;17.91;100.00;157020.38;5009196;28;20042;-79
2022/07/01 03:18:33;;;;;;;13.40;9.15;;;;;;;17.87;100.00;157011.38;4993168;28;20042;-76
2022/07/01 03:20:59;;;;;;;13.30;9.98;;;;;;;17.92;100.00;157021.72;5024075;28;20102;-76
2022/07/01 03:23:24;;;;;;;13.48;8.57;;;;;;;17.94;100.00;157028.13;5001290;28;20046;-76
2022/07/01 03:25:50;;;;;;;13.27;8.85;;;;;;;17.96;100.00;157032.00;5002727;28;20034;-77
2022/07/01 03:28:17;;;;;;;12.75;8.65;;;;;;;18.01;100.00;157046.19;5008154;28;20121;-76
2022/07/01 03:30:42;;;;;;;8.65;7.03;;;;;;;18.01;100.00;157044.91;5009307;28;20117;-76
2022/07/01 03:33:08;;;;;;;9.73;7.28;;;;;;;18.03;100.00;157051.34;4973883;28;20141;-77
2022/07/01 03:35:39;;;;;;;9.90;7.15;;;;;;;18.03;100.00;157051.34;4993054;28;20049;-78
2022/07/01 03:38:05;;;;;;;11.90;8.57;;;;;;;18.05;100.00;157055.22;4978917;28;20045;-76
2022/07/01 03:40:31;;;;;;;9.88;8.18;;;;;;;18.03;100.00;157050.06;4992788;28;20104;-76
2022/07/01 03:42:57;;;;;;;9.40;7.93;;;;;;;17.99;100.00;157039.72;4975237;28;20408;-76
2022/07/01 03:45:23;;;;;;;12.85;8.38;;;;;;;17.96;100.00;157032.00;4982958;28;20042;-76
2022/07/01 03:47:49;;;;;;;14.30;11.25;;;;;;;17.96;100.00;157032.00;5008711;28;20030;-77
2022/07/01 03:50:16;;;;;;;15.70;12.70;;;;;;;18.00;100.00;157042.31;4964142;28;20034;-76
2022/07/01 03:52:42;;;;;;;17.27;13.98;;;;;;;18.05;100.00;157055.22;4972833;28;20050;-76
2022/07/01 03:55:11;;;;;;;17.33;14.05;;;;;;;18.01;100.00;157044.91;4989498;28;20461;-76
2022/07/01 03:57:37;;;;;;;16.23;14.23;;;;;;;18.02;100.00;157047.47;4993774;28;20041;-77
2022/07/01 04:00:05;;;;;;;20.30;15.93;;;;;;;17.95;100.00;157029.41;4990772;28;20038;-76
2022/07/01 04:02:30;;;;;;;22.05;16.38;;;;;;;17.88;100.00;157013.97;5005652;28;20034;-78
2022/07/01 04:04:56;;;;;;;26.33;18.27;;;;;;;17.83;100.00;156999.75;5003365;28;20123;-79
2022/07/01 04:07:22;;;;;;;23.15;18.55;;;;;;;17.93;100.00;157025.53;4988601;28;20511;-78
2022/07/01 04:09:48;;;;;;;22.88;18.08;;;;;;;17.88;100.00;157013.97;4990331;28;20030;-78
2022/07/01 04:12:14;;;;;;;25.67;18.30;;;;;;;17.96;100.00;157032.00;4973338;28;20423;-76
2022/07/01 04:14:39;;;;;;;21.45;16.70;;;;;;;17.94;100.00;157026.88;5000108;28;20023;-79
2022/07/01 04:17:05;;;;;;;17.90;15.43;;;;;;;17.89;100.00;157016.56;4969935;28;20037;-77
2022/07/01 04:19:31;;;;;;;18.25;15.52;;;;;;;17.88;100.00;157012.69;4967615;28;20026;-76
2022/07/01 04:24:41;;;;;;;17.55;14.63;;;;;;;17.85;100.00;157006.22;5002085;28;20026;-77
2022/07/01 04:27:06;;;;;;;14.30;12.85;;;;;;;17.87;100.00;157010.09;5014191;28;20030;-75
2022/07/01 04:29:32;;;;;;;19.50;14.60;;;;;;;17.79;100.00;156989.44;5021437;28;20095;-75
2022/07/01 04:31:59;;;;;;;18.23;12.73;;;;;;;17.78;100.00;156988.16;5014862;28;20033;-75
2022/07/01 04:34:25;;;;;;;16.33;12.13;;;;;;;17.82;100.00;156997.13;5004949;28;20041;-73
2022/07/01 04:36:51;;;;;;;11.02;9.38;;;;;;;17.89;100.00;157015.25;4984045;28;20125;-75
2022/07/01 04:39:17;;;;;;;9.45;8.07;;;;;;;17.77;100.00;156985.56;4995484;28;20054;-78
2022/07/01 04:42:01;;;;;;;11.88;8.18;;;;;;;17.76;100.00;156982.97;5006340;28;20842;-77
2022/07/01 04:44:37;;;;;;;9.48;8.52;;;;;;;17.77;100.00;156985.56;4989251;28;20048;-75
2022/07/01 04:47:04;;;;;;;13.63;8.90;;;;;;;17.65;100.00;156954.63;4994254;28;20068;-77
2022/07/01 04:49:30;;;;;;;11.45;9.30;;;;;;;17.54;100.00;156927.59;4965626;28;20022;-77
2022/07/01 04:51:57;;;;;;;13.60;10.13;;;;;;;17.58;100.00;156937.91;4969325;28;20042;-78
2022/07/01 04:54:25;;;;;;;12.93;10.73;;;;;;;17.43;100.00;156899.25;4985763;23;20084;-77
2022/07/01 04:56:51;;;;;;;11.93;10.35;;;;;;;17.43;100.00;156900.53;4962642;28;20488;-80
2022/07/01 04:59:17;;;;;;;14.13;11.07;;;;;;;17.41;100.00;156894.09;4973167;28;20081;-77
2022/07/01 05:01:44;;;;;;;14.07;10.80;;;;;;;17.33;100.00;156874.78;4974112;28;20066;-77
2022/07/01 05:04:10;;;;;;;18.20;10.65;;;;;;;17.34;100.00;156877.34;4972938;28;20063;-77
2022/07/01 05:06:36;;;;;;;16.42;10.75;;;;;;;17.17;100.00;156834.84;4966492;28;20058;-76
2022/07/01 05:09:02;;;;;;;24.80;11.30;;;;;;;17.07;100.00;156809.09;4965929;28;20390;-77
2022/07/01 05:11:28;;;;;;;19.75;11.70;;;;;;;17.02;100.00;156796.19;4959206;28;20505;-78
2022/07/01 05:13:53;;;;;;;22.33;11.68;;;;;;;16.84;100.00;156751.09;4965701;28;20035;-78
2022/07/01 05:16:19;;;;;;;23.15;12.38;;;;;;;16.82;100.00;156747.28;4955111;28;20030;-79
2022/07/01 05:24:14;;;;;;;19.50;9.60;;;;;;;16.55;100.00;156680.22;4968220;28;20072;-78
2022/07/01 05:26:39;;;;;;;16.88;8.40;;;;;;;16.55;100.00;156680.22;4981841;28;20067;-80
2022/07/01 05:29:05;;;;;;;18.70;8.50;;;;;;;16.57;100.00;156682.81;4965910;28;20049;-78
2022/07/01 05:31:31;;;;;;;19.95;7.50;;;;;;;16.50;100.00;156666.06;4970219;28;20122;-78
2022/07/01 05:33:57;;;;;;;14.27;5.53;;;;;;;16.40;100.00;156641.59;4954966;28;20126;-78
2022/07/01 05:36:22;;;;;;;11.38;5.20;;;;;;;16.36;100.00;156631.31;4961615;28;20611;-78
2022/07/01 05:38:48;;;;;;;17.48;4.95;;;;;;;16.39;100.00;156637.75;4974142;28;20134;-79
2022/07/01 05:41:13;;;;;;;11.15;4.78;;;;;;;16.33;100.00;156624.91;4957305;28;20031;-76
2022/07/01 05:43:39;;;;;;;18.13;5.05;;;;;;;16.31;100.00;156618.44;4975669;28;20073;-77
2022/07/01 05:46:04;;;;;;;11.77;4.18;;;;;;;16.27;100.00;156609.41;4966303;28;20122;-78
2022/07/01 05:48:30;;;;;;;19.58;4.72;;;;;;;16.39;100.00;156637.75;4965997;28;20071;-78
2022/07/01 05:50:56;;;;;;;12.55;5.15;;;;;;;16.28;100.00;156612.00;4948837;28;20501;-78
2022/07/01 05:53:22;;;;;;;19.17;4.90;;;;;;;16.08;100.00;156561.78;4973883;28;20121;-77
2022/07/01 05:55:47;;;;;;;11.07;3.83;;;;;;;15.94;100.00;156525.78;4947137;28;20043;-78
2022/07/01 05:58:14;;;;;;;15.35;4.05;;;;;;;15.80;100.00;156491.00;4963452;28;20162;-79
2022/07/01 06:00:41;;;;;;;9.88;3.92;;;;;;;15.72;100.00;156471.63;4983783;28;20109;-77
2022/07/01 06:03:11;;;;;;;17.63;4.38;;;;;;;15.69;100.00;156463.94;4974757;28;20035;-78
2022/07/01 06:05:37;;;;;;;16.10;4.50;;;;;;;15.58;100.00;156436.91;4974473;28;20394;-79
2022/07/01 06:08:03;;;;;;;8.57;3.30;;;;;;;15.49;100.00;156412.47;4957092;28;20083;-77
2022/07/01 06:10:29;;;;;;;9.98;3.50;;;;;;;15.47;100.00;156407.34;4965971;28;20070;-77
2022/07/01 06:12:55;;;;;;;14.82;3.28;;;;;;;15.30;100.00;156364.88;4967917;28;20066;-77
2022/07/01 06:15:20;;;;;;;13.70;3.03;;;;;;;15.18;100.00;156335.25;4982385;28;20796;-79
2022/07/01 06:17:46;;;;;;;9.13;3.65;;;;;;;15.23;100.00;156346.84;4981656;28;20094;-78
2022/07/01 06:20:12;;;;;;;9.98;3.40;;;;;;;15.28;100.00;156359.72;4971726;28;20481;-77
2022/07/01 06:22:37;;;;;;;8.23;3.20;;;;;;;15.26;100.00;156354.59;4977412;28;20493;-77
2022/07/01 06:25:04;;;;;;;12.40;3.80;;;;;;;15.29;100.00;156362.28;4956763;28;20058;-76
2022/07/01 06:27:29;;;;;;;11.40;3.63;;;;;;;15.25;100.00;156353.25;4976802;28;20039;-75
2022/07/01 06:29:55;;;;;;;10.15;3.20;;;;;;;15.21;100.00;156341.72;4962240;28;20086;-76
2022/07/01 06:32:21;;;;;;;8.93;2.97;;;;;;;15.20;100.00;156340.44;4960689;28;20034;-78
2022/07/01 06:34:48;;;;;;;9.32;3.40;;;;;;;15.23;100.00;156348.13;4978833;28;20050;-77
2022/07/01 06:37:13;;;;;;;12.85;4.13;;;;;;;15.23;100.00;156348.13;4957874;28;20034;-77
2022/07/01 06:39:39;;;;;;;8.18;4.40;;;;;;;15.24;100.00;156349.41;4982170;28;20383;-78
2022/07/01 06:42:05;;;;;;;10.95;4.38;;;;;;;15.22;100.00;156344.25;4957491;28;20039;-78
2022/07/01 06:44:30;;;;;;;8.88;4.20;;;;;;;15.24;100.00;156350.72;4965419;28;20039;-78
2022/07/01 06:46:56;;;;;;;12.05;4.57;;;;;;;15.13;100.00;156323.69;4984253;28;20037;-78
2022/07/01 06:49:21;;;;;;;12.82;4.65;;;;;;;15.18;100.00;156335.25;4989119;28;20062;-79
2022/07/01 06:51:47;;;;;;;10.20;4.35;;;;;;;15.17;100.00;156333.97;4952787;28;20024;-79
2022/07/01 06:54:13;;;;;;;7.40;3.60;;;;;;;15.17;100.00;156333.97;4967170;28;20108;-79
2022/07/01 06:56:38;;;;;;;9.25;4.07;;;;;;;15.26;100.00;156354.59;4968304;28;20026;-78
2022/07/01 06:59:04;;;;;;;9.32;3.55;;;;;;;15.25;100.00;156352.00;4962946;28;20124;-79
2022/07/01 07:01:30;;;;;;;9.48;4.20;;;;;;;15.30;100.00;156364.88;4961678;28;20031;-81
2022/07/01 07:03:56;;;;;;;18.17;4.07;;;;;;;15.33;100.00;156372.56;4963617;28;20038;-77
2022/07/01 07:06:21;;;;;;;10.82;4.40;;;;;;;15.28;100.00;156361.00;4947650;28;20042;-78
2022/07/01 07:08:48;;;;;;;10.00;3.90;;;;;;;15.40;100.00;156389.31;4963457;28;20406;-78
2022/07/01 07:11:14;;;;;;;7.38;3.60;;;;;;;15.43;100.00;156398.31;4966944;28;20117;-78
2022/07/01 07:13:42;;;;;;;9.10;3.92;;;;;;;15.39;100.00;156388.03;4965078;28;20037;-77
2022/07/01 07:16:07;;;;;;;7.78;4.15;;;;;;;15.46;100.00;156404.72;4964414;28;20389;-77
2022/07/01 07:18:35;;;;;;;6.30;3.33;;;;;;;15.43;100.00;156397.03;4945854;28;20031;-79
2022/07/01 07:21:00;;;;;;;5.85;3.40;;;;;;;15.28;100.00;156361.00;4987863;28;20061;-77
2022/07/01 07:23:26;;;;;;;6.38;3.30;;;;;;;15.40;100.00;156389.31;4969037;28;20067;-80
2022/07/01 07:25:51;;;;;;;9.25;3.63;;;;;;;15.31;100.00;156367.41;4948598;28;20552;-78
2022/07/01 07:28:17;;;;;;;5.50;3.30;;;;;;;15.30;100.00;156364.88;4986844;28;20682;-77
2022/07/01 07:30:42;;;;;;;4.90;2.88;;;;;;;15.36;100.00;156380.28;4954937;28;20054;-79
2022/07/01 07:33:08;;;;;;;6.80;3.00;;;;;;;15.28;100.00;156361.00;4967136;28;20114;-79
2022/07/01 07:35:33;;;;;;;5.13;2.95;;;;;;;15.29;100.00;156363.53;4951074;28;20122;-79
2022/07/01 07:37:59;;;;;;;4.07;2.60;;;;;;;15.23;100.00;156346.84;4977031;28;20026;-76
2022/07/01 07:40:25;;;;;;;7.07;3.22;;;;;;;15.22;100.00;156344.25;4954091;28;20046;-81
2022/07/01 07:42:51;;;;;;;5.07;2.70;;;;;;;15.33;100.00;156372.56;4946649;28;20077;-78
2022/07/01 07:45:17;;;;;;;8.27;2.53;;;;;;;15.33;100.00;156372.56;4958004;28;20027;-77
2022/07/01 07:47:48;;;;;;;6.93;2.80;;;;;;;15.24;100.00;156349.41;4985827;28;20072;-79
2022/07/01 07:50:14;;;;;;;5.78;2.40;;;;;;;15.33;100.00;156372.56;4960630;28;20073;-80
2022/07/01 07:52:41;;;;;;;7.13;2.40;;;;;;;15.47;100.00;156407.34;4965630;28;20039;-79
2022/07/01 07:55:09;;;;;;;5.78;2.47;;;;;;;15.43;100.00;156397.03;4977779;28;20764;-77
2022/07/01 07:57:39;;;;;;;4.63;2.70;;;;;;;15.47;100.00;156407.34;4945900;28;20038;-79
2022/07/01 08:00:07;;;;;;;4.68;2.67;;;;;;;15.49;100.00;156413.75;4956529;28;20047;-77
2022/07/01 08:02:37;;;;;;;7.13;2.08;;;;;;;15.38;100.00;156386.72;4969755;28;20110;-80
2022/07/01 08:05:03;;;;;;;4.63;2.40;;;;;;;15.45;100.00;156402.19;4961422;28;20189;-78
2022/07/01 08:07:29;;;;;;;5.35;2.80;;;;;;;15.57;100.00;156434.31;4975282;28;20038;-79
2022/07/01 08:09:55;;;;;;;6.63;2.72;;;;;;;15.40;100.00;156390.56;4957833;28;20042;-78
2022/07/01 08:12:21;;;;;;;4.40;2.40;;;;;;;15.37;100.00;156382.88;4953726;28;20027;-79
2022/07/01 08:14:47;;;;;;;13.93;3.17;;;;;;;15.37;100.00;156382.88;4953345;28;20042;-80
2022/07/01 08:17:13;;;;;;;6.32;2.80;;;;;;;15.36;100.00;156381.56;4969180;28;20038;-79
2022/07/01 08:19:38;;;;;;;3.00;2.70;;;;;;;15.25;100.00;156353.25;4969037;28;20039;-80
2022/07/01 08:22:04;;;;;;;5.57;3.03;;;;;;;15.18;100.00;156335.25;4982035;28;20070;-80
2022/07/01 08:24:30;;;;;;;4.72;2.95;;;;;;;15.20;100.00;156340.44;4972864;28;20588;-81
2022/07/01 08:26:55;;;;;;;8.07;2.75;;;;;;;15.24;100.00;156350.72;4956613;28;20046;-79
2022/07/01 08:29:21;;;;;;;6.72;3.20;;;;;;;15.31;100.00;156368.75;4956382;28;20097;-78
2022/07/01 08:31:46;;;;;;;6.45;3.13;;;;;;;15.41;100.00;156393.19;4966288;28;20494;-79
2022/07/01 08:34:12;;;;;;;4.80;2.90;;;;;;;15.46;100.00;156406.00;4974045;28;20046;-79
2022/07/01 08:36:38;;;;;;;4.40;3.13;;;;;;;15.64;100.00;156451.06;4960513;28;20023;-79
2022/07/01 08:39:04;;;;;;;7.72;3.00;;;;;;;15.75;100.00;156478.16;4974108;28;20549;-79
2022/07/01 08:41:30;;;;;;;5.22;3.00;;;;;;;15.71;100.00;156467.81;4945436;28;20046;-79
2022/07/01 08:43:55;;;;;;;4.55;2.90;;;;;;;15.67;100.00;156458.81;4943532;28;20046;-78
2022/07/01 08:46:22;;;;;;;4.03;3.13;;;;;;;15.52;100.00;156420.16;4957815;28;20027;-78
2022/07/01 08:48:48;;;;;;;6.43;3.38;;;;;;;15.58;100.00;156436.91;4948085;28;20134;-78
2022/07/01 08:51:14;;;;;;;4.40;3.30;;;;;;;15.58;100.00;156435.63;4956614;28;20031;-77
2022/07/01 08:53:40;;;;;;;3.38;3.00;;;;;;;15.62;100.00;156444.66;4954866;28;20038;-78
2022/07/01 08:58:51;;;;;;;3.50;2.90;;;;;;;15.74;100.00;156475.56;4958561;28;20493;-79
2022/07/01 09:01:22;;;;;;;3.50;2.97;;;;;;;15.76;100.00;156482.03;4958830;28;20051;-79
2022/07/01 09:03:50;;;;;;;4.30;3.00;;;;;;;15.72;100.00;156470.38;4958855;28;20437;-77
2022/07/01 09:06:21;;;;;;;6.68;3.10;;;;;;;15.64;100.00;156449.78;4956402;28;20314;-79
2022/07/01 09:08:47;;;;;;;6.88;3.15;;;;;;;15.67;100.00;156458.81;4958325;28;20385;-78
2022/07/01 09:11:13;;;;;;;5.63;3.50;;;;;;;15.61;100.00;156443.34;4969606;28;20039;-79
2022/07/01 09:13:40;;;;;;;4.07;3.45;;;;;;;15.54;100.00;156426.63;4954439;28;20039;-79
2022/07/01 09:16:14;;;;;;;8.40;3.70;;;;;;;15.46;100.00;156406.00;4940217;28;20118;-80
2022/07/01 09:18:40;;;;;;;5.53;4.25;;;;;;;15.53;100.00;156422.75;4953691;28;20122;-81
2022/07/01 09:21:16;;;;;;;7.85;3.88;;;;;;;15.50;100.00;156415.03;4972080;28;20035;-77
2022/07/01 09:23:42;;;;;;;5.90;3.33;;;;;;;15.47;100.00;156408.59;4959637;28;20034;-78
2022/07/01 09:26:20;;;;;;;3.33;2.90;;;;;;;15.51;100.00;156418.88;4958978;28;20394;-79
2022/07/01 09:28:52;;;;;;;3.10;2.80;;;;;;;15.60;100.00;156440.78;4964578;28;20066;-79
2022/07/01 09:31:17;;;;;;;3.70;3.00;;;;;;;15.56;100.00;156430.50;4957011;28;20034;-78
2022/07/01 09:33:43;;;;;;;3.80;2.85;;;;;;;15.54;100.00;156425.34;4990405;28;20128;-79
2022/07/01 09:36:15;;;;;;;7.28;3.05;;;;;;;15.57;100.00;156434.31;4962215;28;20038;-79
2022/07/01 09:38:47;;;;;;;3.97;2.80;;;;;;;15.61;100.00;156443.34;4975466;28;20524;-77
2022/07/01 09:41:13;;;;;;;5.07;3.05;;;;;;;15.57;100.00;156434.31;4956762;28;20038;-77
2022/07/01 09:43:39;;;;;;;4.85;3.03;;;;;;;15.56;100.00;156431.78;4960132;28;20543;-78
2022/07/01 09:46:09;;;;;;;4.55;3.05;;;;;;;15.63;100.00;156448.47;4985273;28;20158;-79
2022/07/01 09:48:35;;;;;;;5.75;2.88;;;;;;;15.78;100.00;156485.84;4963070;28;20041;-78
2022/07/01 09:51:02;;;;;;;6.82;3.00;;;;;;;15.72;100.00;156470.38;4964126;28;20023;-79
2022/07/01 09:53:28;;;;;;;3.10;2.80;;;;;;;15.74;100.00;156475.56;4977925;28;20696;-79
2022/07/01 09:55:54;;;;;;;6.65;2.90;;;;;;;15.81;100.00;156493.59;4966759;28;20042;-79
2022/07/01 09:58:20;;;;;;;5.07;3.47;;;;;;;15.81;100.00;156492.31;4950434;28;20023;-79
2022/07/01 10:00:46;;;;;;;6.88;4.13;;;;;;;15.70;100.00;156466.50;4977047;28;20035;-79
2022/07/01 10:03:12;;;;;;;6.35;3.20;;;;;;;15.74;100.00;156475.56;4972594;28;20480;-79
2022/07/01 10:05:57;;;;;;;5.90;3.47;;;;;;;15.67;100.00;156457.47;4971183;28;20854;-77
2022/07/01 10:09:01;;;;;;;6.38;3.30;;;;;;;15.64;100.00;156451.06;4973011;28;20134;-81
2022/07/01 10:11:34;;;;;;;6.18;3.10;;;;;;;15.60;100.00;156440.78;4955336;28;20539;-79
2022/07/01 10:14:04;;;;;;;6.45;3.10;;;;;;;15.57;100.00;156434.31;4991525;28;20043;-81
2022/07/01 10:16:34;;;;;;;3.50;3.00;;;;;;;15.50;100.00;156415.03;4981964;28;20351;-79
2022/07/01 10:19:25;;;;;;;7.93;3.25;;;;;;;15.46;100.00;156406.00;4966670;28;20043;-80
2022/07/01 10:21:56;;;;;;;7.47;3.67;;;;;;;15.54;100.00;156426.63;4974052;28;20035;-81
2022/07/01 10:24:24;;;;;;;5.05;3.45;;;;;;;15.51;100.00;156417.63;4945455;28;20077;-79
2022/07/01 10:26:50;;;;;;;8.32;3.30;;;;;;;15.48;100.00;156409.88;4965237;28;20085;-80
2022/07/01 10:29:31;;;;;;;6.32;3.00;;;;;;;15.62;100.00;156444.66;4957763;28;20038;-79
2022/07/01 10:32:01;;;;;;;7.10;3.50;;;;;;;15.53;100.00;156422.75;4934442;28;20046;-80
2022/07/01 10:34:37;;;;;;;5.30;3.33;;;;;;;15.45;100.00;156403.47;4943150;28;20125;-79
2022/07/01 10:37:09;;;;;;;7.95;3.70;;;;;;;15.51;100.00;156418.88;4948520;28;20054;-80
2022/07/01 10:39:53;;;;;;;4.95;3.60;;;;;;;15.51;100.00;156418.88;4938755;28;20038;-79
2022/07/01 10:42:18;;;;;;;7.78;3.78;;;;;;;15.38;100.00;156385.44;4934342;28;20054;-80
2022/07/01 10:45:01;;;;;;;7.80;3.60;;;;;;;15.40;100.00;156389.31;4952295;28;20035;-79
2022/07/01 10:47:26;;;;;;;5.10;3.88;;;;;;;15.23;100.00;156346.84;4963359;28;20067;-78
2022/07/01 10:49:55;;;;;;;6.25;4.00;;;;;;;15.28;100.00;156359.72;4973614;28;20133;-79
2022/07/01 10:52:21;;;;;;;6.80;4.00;;;;;;;15.26;100.00;156354.59;4962888;28;20041;-79
2022/07/01 10:54:53;;;;;;;5.85;4.20;;;;;;;15.36;100.00;156380.28;5012217;23;20045;-77
2022/07/01 10:57:18;;;;;;;5.95;4.50;;;;;;;15.38;100.00;156386.72;5005700;28;20037;-79
2022/07/01 10:59:49;;;;;;;7.60;4.35;;;;;;;15.42;100.00;156394.44;5012159;28;20060;-79
2022/07/01 11:02:20;;;;;;;7.60;4.32;;;;;;;15.54;100.00;156425.34;5042373;28;20639;-80
2022/07/01 11:04:46;;;;;;;5.70;4.45;;;;;;;15.71;100.00;156467.81;5014136;28;20826;-77
2022/07/01 11:07:12;;;;;;;5.28;4.65;;;;;;;15.70;100.00;156465.22;5007778;28;20100;-79
2022/07/01 11:09:38;;;;;;;5.32;4.65;;;;;;;15.85;100.00;156503.88;4987694;28;20099;-78
2022/07/01 11:12:06;;;;;;;6.90;5.13;;;;;;;16.03;100.00;156547.63;5018504;28;20563;-78
2022/07/01 11:14:40;;;;;;;5.63;4.85;;;;;;;16.00;100.00;156541.22;5010689;28;20033;-80
2022/07/01 11:17:07;;;;;;;7.60;4.95;;;;;;;16.05;100.00;156554.09;4991414;28;20037;-78
2022/07/01 11:19:32;;;;;;;6.32;5.38;;;;;;;16.06;100.00;156556.66;5007284;28;20037;-79
2022/07/01 11:21:58;;;;;;;5.63;5.07;;;;;;;16.13;100.00;156574.69;5008222;28;20045;-77
2022/07/01 11:24:24;;;;;;;6.57;5.93;;;;;;;16.25;100.00;156604.28;4992172;28;20040;-79